createdAt,value
2023-03-06T00:04:08.533Z,41.13
2023-03-06T00:09:10.795Z,35.27
2023-03-06T00:14:12.859Z,38.13
2023-03-06T00:19:14.801Z,35.53
2023-03-06T00:24:16.785Z,36.43
2023-03-06T00:29:18.765Z,38.27
2023-03-06T00:34:20.743Z,39.23
2023-03-06T00:39:23.552Z,37.50
2023-03-06T00:44:25.347Z,39.13
2023-03-06T00:49:27.126Z,33.57
2023-03-06T00:54:29.128Z,34.13
2023-03-06T00:59:30.923Z,35.10
2023-03-06T01:04:32.980Z,36.53
2023-03-06T01:09:35.081Z,33.60
2023-03-06T01:14:37.120Z,33.13
2023-03-06T01:19:39.171Z,38.73
2023-03-06T01:24:41.179Z,40.67
2023-03-06T01:29:43.333Z,38.40
2023-03-06T01:34:45.625Z,36.40
2023-03-06T01:39:47.951Z,39.10
2023-03-06T01:45:04.698Z,40.97
2023-03-06T01:50:10.117Z,40.17
2023-03-06T01:55:16.570Z,38.27
2023-03-06T02:00:23.434Z,36.60
2023-03-06T02:05:25.570Z,42.47
2023-03-06T02:10:27.638Z,41.07
2023-03-06T02:15:30.766Z,41.20
2023-03-06T02:20:52.916Z,44.23
2023-03-06T02:25:55.569Z,38.13
2023-03-06T02:30:57.713Z,36.10
2023-03-06T02:36:02.209Z,39.57
2023-03-06T02:41:06.851Z,36.33
2023-03-06T02:46:09.010Z,37.57
2023-03-06T02:51:10.852Z,41.50
2023-03-06T02:56:13.040Z,39.37
2023-03-06T03:01:17.125Z,38.80
2023-03-06T03:06:19.357Z,40.40
2023-03-06T03:11:21.764Z,34.77
2023-03-06T03:16:23.828Z,42.23
2023-03-06T03:21:25.833Z,35.77
2023-03-06T03:26:29.815Z,42.87
2023-03-06T03:31:37.287Z,41.83
2023-03-06T03:36:39.323Z,45.50
2023-03-06T03:41:43.595Z,38.60
2023-03-06T03:46:46.962Z,41.13
2023-03-06T03:51:54.651Z,39.40
2023-03-06T03:56:58.241Z,42.67
2023-03-06T04:02:06.691Z,45.63
2023-03-06T04:07:15.278Z,46.00
2023-03-06T04:12:18.318Z,45.83
2023-03-06T04:17:20.333Z,46.97
2023-03-06T04:22:23.325Z,46.00
2023-03-06T04:27:25.413Z,51.40
2023-03-06T04:32:28.054Z,54.10
2023-03-06T04:37:30.216Z,50.50
2023-03-06T04:42:34.446Z,50.87
2023-03-06T04:47:36.429Z,46.20
2023-03-06T04:52:40.391Z,48.97
2023-03-06T04:57:44.392Z,51.00
2023-03-06T05:02:48.528Z,46.87
2023-03-06T05:07:50.624Z,53.67
2023-03-06T05:12:52.656Z,55.33
2023-03-06T05:17:55.325Z,55.60
2023-03-06T05:22:57.325Z,50.97
2023-03-06T05:27:59.418Z,52.60
2023-03-06T05:33:01.509Z,55.50
2023-03-06T05:38:03.617Z,49.43
2023-03-06T05:43:07.276Z,46.13
2023-03-06T05:48:13.119Z,56.77
2023-03-06T05:53:15.708Z,49.53
2023-03-06T05:58:18.401Z,49.97
2023-03-06T06:03:21.070Z,45.60
2023-03-06T06:08:23.155Z,47.83
2023-03-06T06:13:24.971Z,51.03
2023-03-06T06:18:26.854Z,44.83
2023-03-06T06:23:28.870Z,47.63
2023-03-06T06:28:31.321Z,45.60
2023-03-06T06:33:33.156Z,56.87
2023-03-06T06:38:34.945Z,41.70
2023-03-06T06:43:36.769Z,46.97
2023-03-06T06:48:38.560Z,47.00
2023-03-06T06:53:40.517Z,50.43
2023-03-06T06:58:42.877Z,48.33
2023-03-06T07:03:44.779Z,49.40
2023-03-06T07:08:46.878Z,50.37
2023-03-06T07:13:49.135Z,51.83
2023-03-06T07:18:51.111Z,52.87
2023-03-06T07:23:54.314Z,50.10
2023-03-06T07:28:56.503Z,51.67
2023-03-06T07:33:58.561Z,50.13
2023-03-06T07:39:00.620Z,44.90
2023-03-06T07:44:02.726Z,51.00
2023-03-06T07:49:04.587Z,49.47
2023-03-06T07:54:06.488Z,49.60
2023-03-06T07:59:10.744Z,50.67
2023-03-06T08:04:12.644Z,44.33
2023-03-06T08:09:14.635Z,46.93
2023-03-06T08:14:16.529Z,39.60
2023-03-06T08:19:19.873Z,44.13
2023-03-06T08:24:21.761Z,39.93
2023-03-06T08:29:23.591Z,37.70
2023-03-06T08:34:26.326Z,40.23
2023-03-06T08:39:28.253Z,38.50
2023-03-06T08:44:30.375Z,41.27
2023-03-06T08:49:33.035Z,37.20
2023-03-06T08:54:36.101Z,31.60
2023-03-06T08:59:38.172Z,32.90
2023-03-06T09:04:40.253Z,31.97
2023-03-06T09:09:42.630Z,40.40
2023-03-06T09:14:44.878Z,35.77
2023-03-06T09:19:47.039Z,33.60
2023-03-06T09:24:49.096Z,44.63
2023-03-06T09:29:51.093Z,36.37
2023-03-06T09:34:53.130Z,33.67
2023-03-06T09:39:54.962Z,30.63
2023-03-06T09:45:00.073Z,35.47
2023-03-06T09:50:30.336Z,33.60
2023-03-06T09:55:40.259Z,29.97
2023-03-06T10:01:12.616Z,36.67
2023-03-06T10:06:23.969Z,34.43
2023-03-06T10:11:53.220Z,39.57
2023-03-06T10:16:56.088Z,36.17
2023-03-06T10:22:16.905Z,34.37
2023-03-06T10:27:18.969Z,33.63
2023-03-06T10:32:34.280Z,38.73
2023-03-06T10:37:41.688Z,35.67
2023-03-06T10:42:43.707Z,31.67
2023-03-06T10:47:46.400Z,34.80
2023-03-06T10:53:05.037Z,33.03
2023-03-06T10:58:28.401Z,30.67
2023-03-06T11:03:30.514Z,35.13
2023-03-06T11:08:33.411Z,34.30
2023-03-06T11:13:38.255Z,32.13
2023-03-06T11:18:42.786Z,32.00
2023-03-06T11:23:47.127Z,30.87
2023-03-06T11:29:01.011Z,34.80
2023-03-06T11:34:12.128Z,30.50
2023-03-06T11:39:43.585Z,26.23
2023-03-06T11:45:13.521Z,29.83
2023-03-06T11:50:42.069Z,27.40
2023-03-06T11:56:05.213Z,28.67
2023-03-06T12:01:22.351Z,30.00
2023-03-06T12:06:47.259Z,30.30
2023-03-06T12:11:52.592Z,33.03
2023-03-06T12:17:26.777Z,32.73
2023-03-06T12:22:42.259Z,24.03
2023-03-06T12:28:17.192Z,25.10
2023-03-06T12:33:19.157Z,22.53
2023-03-06T12:38:23.950Z,22.40
2023-03-06T12:43:47.440Z,23.93
2023-03-06T12:49:32.895Z,22.83
2023-03-06T12:54:38.277Z,23.40
2023-03-06T12:59:48.721Z,26.53
2023-03-06T13:05:21.874Z,23.90
2023-03-06T13:10:30.598Z,23.13
2023-03-06T13:15:38.025Z,26.83
2023-03-06T13:20:44.882Z,28.57
2023-03-06T13:25:50.048Z,27.17
2023-03-06T13:30:53.279Z,29.00
2023-03-06T13:35:57.307Z,29.07
2023-03-06T13:41:33.779Z,31.33
2023-03-06T13:46:37.843Z,29.37
2023-03-06T13:52:04.360Z,33.87
2023-03-06T13:57:21.598Z,32.57
2023-03-06T14:02:52.658Z,28.17
2023-03-06T14:08:13.873Z,30.20
2023-03-06T14:13:23.980Z,29.23
2023-03-06T14:18:40.149Z,27.10
2023-03-06T14:23:45.045Z,32.67
2023-03-06T14:28:53.136Z,33.73
2023-03-06T14:34:05.316Z,29.30
2023-03-06T14:39:33.061Z,31.83
2023-03-06T14:44:35.246Z,30.43
2023-03-06T14:49:37.272Z,22.60
2023-03-06T14:54:44.795Z,24.53
2023-03-06T14:59:56.186Z,24.13
2023-03-06T15:05:03.401Z,24.17
2023-03-06T15:10:10.430Z,22.87
2023-03-06T15:15:12.722Z,24.83
2023-03-06T15:20:41.357Z,21.63
2023-03-06T15:26:00.811Z,23.37
2023-03-06T15:31:25.739Z,24.63
2023-03-06T15:36:31.332Z,22.03
2023-03-06T15:41:36.058Z,17.83
2023-03-06T15:46:38.117Z,21.03
2023-03-06T15:51:40.625Z,26.07
2023-03-06T15:56:44.358Z,19.87
2023-03-06T16:01:46.343Z,20.03
2023-03-06T16:06:48.774Z,20.67
2023-03-06T16:11:50.833Z,17.97
2023-03-06T16:16:56.856Z,18.33
2023-03-06T16:21:59.270Z,23.50
2023-03-06T16:27:01.997Z,20.20
2023-03-06T16:32:04.549Z,21.10
2023-03-06T16:37:06.626Z,18.40
2023-03-06T16:42:08.545Z,18.33
2023-03-06T16:47:12.363Z,18.00
2023-03-06T16:52:14.582Z,18.37
2023-03-06T16:57:17.449Z,20.73
2023-03-06T17:02:19.473Z,19.77
2023-03-06T17:07:21.479Z,22.10
2023-03-06T17:12:23.668Z,18.90
2023-03-06T17:17:25.459Z,20.67
2023-03-06T17:22:27.847Z,22.43
2023-03-06T17:27:30.014Z,18.30
2023-03-06T17:32:32.817Z,20.40
2023-03-06T17:37:34.925Z,19.03
2023-03-06T17:42:36.882Z,20.23
2023-03-06T17:47:38.876Z,20.77
2023-03-06T17:52:41.574Z,23.87
2023-03-06T17:57:43.577Z,21.83
2023-03-06T18:02:45.394Z,22.87
2023-03-06T18:07:47.476Z,19.50
2023-03-06T18:12:49.680Z,18.20
2023-03-06T18:17:51.815Z,17.07
2023-03-06T18:22:53.808Z,16.33
2023-03-06T18:27:55.918Z,18.00
2023-03-06T18:32:58.304Z,20.77
2023-03-06T18:38:00.502Z,20.23
2023-03-06T18:43:02.793Z,21.03
2023-03-06T18:48:05.789Z,23.17
2023-03-06T18:53:07.740Z,22.53
2023-03-06T18:58:09.515Z,19.27
2023-03-06T19:03:12.105Z,18.60
2023-03-06T19:08:15.431Z,17.83
2023-03-06T19:13:17.875Z,15.30
2023-03-06T19:18:19.658Z,16.20
2023-03-06T19:23:22.459Z,17.40
2023-03-06T19:28:24.650Z,17.43
2023-03-06T19:33:26.707Z,15.80
2023-03-06T19:38:28.806Z,16.63
2023-03-06T19:43:31.185Z,16.67
2023-03-06T19:48:33.362Z,17.17
2023-03-06T19:53:35.562Z,16.83
2023-03-06T19:58:38.323Z,17.53
2023-03-06T20:03:40.600Z,14.93
2023-03-06T20:08:43.498Z,18.87
2023-03-06T20:13:47.447Z,18.67
2023-03-06T20:18:49.945Z,16.50
2023-03-06T20:23:53.163Z,17.00
2023-03-06T20:28:55.661Z,16.23
2023-03-06T20:33:59.123Z,15.57
2023-03-06T20:39:03.371Z,9.03
2023-03-06T20:44:07.280Z,12.70
2023-03-06T20:49:11.141Z,16.90
2023-03-06T20:54:15.145Z,14.37
2023-03-06T20:59:17.478Z,14.03
2023-03-06T21:04:19.480Z,13.10
2023-03-06T21:09:21.795Z,16.03
2023-03-06T21:14:23.613Z,11.17
2023-03-06T21:19:25.825Z,11.77
2023-03-06T21:24:28.566Z,11.57
2023-03-06T21:29:30.791Z,14.40
2023-03-06T21:34:33.245Z,11.57
2023-03-06T21:39:35.227Z,11.83
2023-03-06T21:44:37.190Z,12.33
2023-03-06T21:49:39.230Z,11.27
2023-03-06T21:54:41.335Z,15.53
2023-03-06T21:59:43.140Z,9.53
2023-03-06T22:04:49.930Z,9.17
2023-03-06T22:09:53.363Z,12.90
2023-03-06T22:14:55.303Z,12.50
2023-03-06T22:19:57.491Z,9.10
2023-03-06T22:24:59.523Z,12.13
2023-03-06T22:30:01.692Z,7.13
2023-03-06T22:35:03.908Z,11.33
2023-03-06T22:40:06.205Z,7.67
2023-03-06T22:45:08.747Z,8.27
2023-03-06T22:50:11.724Z,9.80
2023-03-06T22:55:13.528Z,8.17
2023-03-06T23:00:15.632Z,7.70
2023-03-06T23:05:17.996Z,10.60
2023-03-06T23:10:19.953Z,4.97
2023-03-06T23:15:40.515Z,7.03
2023-03-06T23:21:00.992Z,7.27
2023-03-06T23:26:25.233Z,7.70
2023-03-06T23:31:29.664Z,7.53
2023-03-06T23:36:32.164Z,10.20
2023-03-06T23:41:34.046Z,11.33
2023-03-06T23:46:36.156Z,11.00
2023-03-06T23:51:38.054Z,10.17
2023-03-06T23:56:40.109Z,10.07
